Time;durP1;ratioP1;P1;durP2;ratioP2;P2;SDS_P1;SDS_P2;PMS_P1;PMS_P2;Temp;Humidity;BMP_temperature;BMP_pressure;BME280_temperature;BME280_humidity;BME280_pressure;Samples;Min_cycle;Max_cycle;Signal;HPM_P1;HPM_P2
2024/01/10 00:00:11;;;;;;;100.15;39.65;;;-10.40;91.80;;;;;;2585264;54;20085;31
2024/01/10 00:02:46;;;;;;;107.90;39.95;;;-10.40;93.60;;;;;;2585123;54;20116;31
2024/01/10 00:05:22;;;;;;;117.90;40.63;;;-10.40;95.20;;;;;;2603682;46;19940;31
2024/01/10 00:07:59;;;;;;;94.25;36.78;;;-10.40;95.40;;;;;;2585330;54;20037;31
2024/01/10 00:10:35;;;;;;;90.47;38.40;;;-10.40;95.50;;;;;;2585115;54;20759;31
2024/01/10 00:13:12;;;;;;;108.10;41.70;;;-10.40;93.90;;;;;;2585111;54;20860;31
2024/01/10 00:15:47;;;;;;;110.50;43.80;;;-10.40;93.90;;;;;;2585247;54;20806;31
2024/01/10 00:18:22;;;;;;;115.10;40.45;;;-10.40;95.00;;;;;;2585187;54;20859;31
2024/01/10 00:20:56;;;;;;;118.47;43.08;;;-10.50;95.10;;;;;;2585273;54;21991;31
2024/01/10 00:23:31;;;;;;;101.95;41.80;;;-10.40;94.50;;;;;;2603588;46;20116;31
2024/01/10 00:26:05;;;;;;;111.25;42.95;;;-10.40;93.70;;;;;;2585019;54;20034;31
2024/01/10 00:28:45;;;;;;;119.30;44.63;;;-10.40;93.30;;;;;;2584208;54;20035;31
2024/01/10 00:31:22;;;;;;;98.38;38.80;;;-10.50;93.40;;;;;;2584319;54;20097;31
2024/01/10 00:33:58;;;;;;;97.60;38.75;;;-10.40;92.30;;;;;;2603182;46;20997;31
2024/01/10 00:36:34;;;;;;;97.85;40.17;;;-10.40;92.90;;;;;;2584260;54;20935;31
2024/01/10 00:39:10;;;;;;;120.20;44.25;;;-10.40;91.90;;;;;;2585051;54;20084;31
2024/01/10 00:41:44;;;;;;;112.07;41.27;;;-10.40;92.10;;;;;;2583908;54;20974;31
2024/01/10 00:44:22;;;;;;;103.68;41.35;;;-10.40;93.00;;;;;;2584116;54;20251;31
2024/01/10 00:46:57;;;;;;;110.80;42.90;;;-10.50;93.50;;;;;;2585141;54;20033;31
2024/01/10 00:49:32;;;;;;;130.87;45.17;;;-10.50;92.30;;;;;;2603674;46;20912;31
2024/01/10 00:52:06;;;;;;;111.22;45.50;;;-10.50;92.80;;;;;;2585064;54;20257;31
2024/01/10 00:54:49;;;;;;;120.60;47.00;;;-10.50;93.40;;;;;;2585169;54;20917;31
2024/01/10 00:57:25;;;;;;;124.05;46.85;;;-10.60;93.30;;;;;;2584980;54;20100;31
2024/01/10 01:00:03;;;;;;;122.20;47.40;;;-10.60;94.20;;;;;;2584972;54;20835;31
2024/01/10 01:02:39;;;;;;;110.50;42.23;;;-10.60;93.50;;;;;;2585145;54;20941;31
2024/01/10 01:05:16;;;;;;;121.90;43.20;;;-10.60;93.30;;;;;;2585244;54;21088;31
2024/01/10 01:07:51;;;;;;;115.13;44.43;;;-10.50;91.80;;;;;;2585302;54;21737;31
2024/01/10 01:10:26;;;;;;;118.43;44.70;;;-10.60;93.30;;;;;;2583830;54;21166;31
2024/01/10 01:13:01;;;;;;;124.00;47.92;;;-10.60;91.20;;;;;;2585058;54;20101;31
2024/01/10 01:15:41;;;;;;;114.97;44.50;;;-10.60;92.10;;;;;;2584764;54;20214;31
2024/01/10 01:18:16;;;;;;;137.25;48.10;;;-10.60;92.40;;;;;;2583872;54;20031;31
2024/01/10 01:20:52;;;;;;;123.63;46.93;;;-10.60;92.10;;;;;;2584917;54;20895;31
2024/01/10 01:23:26;;;;;;;;;;;-10.60;92.70;;;;;;2585347;54;20988;31
2024/01/10 01:26:15;;;;;;;102.33;41.63;;;-10.70;92.70;;;;;;2584826;54;20788;31
2024/01/10 01:28:52;;;;;;;129.10;45.78;;;-10.70;93.80;;;;;;2597413;46;20234;31
2024/01/10 01:31:30;;;;;;;109.97;44.53;;;-10.70;93.10;;;;;;2584739;54;20857;31
2024/01/10 01:34:12;;;;;;;130.77;46.83;;;-10.70;93.90;;;;;;2583887;54;20140;31
2024/01/10 01:36:48;;;;;;;125.40;46.38;;;-10.70;94.20;;;;;;2584773;54;20108;31
2024/01/10 01:39:22;;;;;;;;;;;-10.70;94.00;;;;;;2585012;54;20876;31
2024/01/10 01:41:57;;;;;;;102.30;39.70;;;-10.80;94.60;;;;;;2584125;54;19965;31
2024/01/10 01:44:35;;;;;;;114.38;44.65;;;-10.80;95.10;;;;;;2584845;54;21030;31
2024/01/10 01:47:12;;;;;;;135.45;46.53;;;-10.80;94.30;;;;;;2584973;54;20033;31
2024/01/10 01:49:45;;;;;;;109.68;44.58;;;-10.80;94.90;;;;;;2584755;54;20108;31
2024/01/10 01:52:20;;;;;;;112.65;44.95;;;-10.80;95.00;;;;;;2585050;54;20893;31
2024/01/10 01:54:54;;;;;;;111.13;43.03;;;-10.80;95.20;;;;;;2600198;46;20911;31
2024/01/10 01:57:27;;;;;;;105.80;43.30;;;-10.80;95.20;;;;;;2605023;46;21926;31
2024/01/10 02:00:05;;;;;;;115.53;46.08;;;-10.90;95.60;;;;;;2585814;54;19935;31
2024/01/10 02:02:43;;;;;;;108.43;43.03;;;-10.90;94.60;;;;;;2586507;54;20707;31
2024/01/10 02:05:19;;;;;;;105.70;39.40;;;-10.90;94.50;;;;;;2586742;54;20876;31
2024/01/10 02:07:55;;;;;;;109.72;41.90;;;-10.90;93.40;;;;;;2586459;54;20057;31
2024/01/10 02:10:30;;;;;;;101.57;40.80;;;-10.90;94.90;;;;;;2586823;54;20027;31
2024/01/10 02:13:05;;;;;;;120.03;42.58;;;-10.90;94.90;;;;;;2586542;54;20026;31
2024/01/10 02:15:39;;;;;;;84.07;31.73;;;-10.90;94.80;;;;;;2585553;54;20093;31
2024/01/10 02:18:18;;;;;;;105.07;41.17;;;-10.90;95.10;;;;;;2604845;46;21036;31
2024/01/10 02:20:53;;;;;;;104.50;39.77;;;-10.90;94.40;;;;;;2605090;46;20979;31
2024/01/10 02:23:27;;;;;;;111.07;42.37;;;-10.90;94.30;;;;;;2586562;54;20293;31
2024/01/10 02:26:04;;;;;;;97.85;39.70;;;-10.90;93.50;;;;;;2586346;54;20305;31
2024/01/10 02:28:39;;;;;;;100.55;38.17;;;-10.90;93.30;;;;;;2604835;46;20997;31
2024/01/10 02:31:13;;;;;;;103.07;37.53;;;-10.90;93.50;;;;;;2586416;54;20896;31
2024/01/10 02:33:49;;;;;;;96.57;36.63;;;-10.90;93.00;;;;;;2604632;46;20976;31
2024/01/10 02:36:24;;;;;;;89.13;35.10;;;-10.90;94.20;;;;;;2606013;38;22334;31
2024/01/10 02:38:58;;;;;;;84.90;33.03;;;-11.00;93.30;;;;;;2604952;46;20894;31
2024/01/10 02:41:39;;;;;;;88.03;36.13;;;-11.00;93.60;;;;;;2586455;54;20939;31
2024/01/10 02:44:14;;;;;;;77.37;32.63;;;-11.00;93.30;;;;;;2586232;54;20877;31
2024/01/10 02:46:49;;;;;;;80.50;33.90;;;-11.00;92.90;;;;;;2586357;54;20026;31
2024/01/10 02:49:24;;;;;;;100.50;35.50;;;-11.00;93.60;;;;;;2586453;54;20027;31
2024/01/10 02:52:00;;;;;;;83.55;34.88;;;-11.00;94.90;;;;;;2605059;46;20102;31
2024/01/10 02:54:36;;;;;;;79.45;32.97;;;-11.10;96.10;;;;;;2586586;54;20760;31
2024/01/10 02:57:14;;;;;;;96.20;37.67;;;-11.10;96.60;;;;;;2585572;54;20097;31
2024/01/10 02:59:48;;;;;;;99.77;37.73;;;-11.20;97.00;;;;;;2586474;54;20076;31
2024/01/10 03:02:23;;;;;;;95.03;37.47;;;-11.30;97.30;;;;;;2604661;46;20818;31
2024/01/10 03:04:59;;;;;;;81.30;30.25;;;-11.20;97.20;;;;;;2604189;47;20899;31
2024/01/10 03:07:33;;;;;;;82.25;36.30;;;-11.30;97.20;;;;;;2603600;46;20112;31
2024/01/10 03:10:09;;;;;;;89.53;33.00;;;-11.30;96.90;;;;;;2585596;54;20752;31
2024/01/10 03:12:47;;;;;;;79.30;32.50;;;-11.30;96.40;;;;;;2603753;46;20045;31
2024/01/10 03:15:25;;;;;;;79.28;32.45;;;-11.20;95.10;;;;;;2585600;54;20866;31
2024/01/10 03:18:01;;;;;;;87.40;33.78;;;-11.30;95.20;;;;;;2603792;46;20909;31
2024/01/10 03:20:36;;;;;;;79.90;32.83;;;-11.30;94.90;;;;;;2584964;54;20959;31
2024/01/10 03:23:11;;;;;;;72.85;30.65;;;-11.20;94.30;;;;;;2585252;54;19989;31
2024/01/10 03:25:46;;;;;;;96.00;35.90;;;-11.30;94.30;;;;;;2585591;54;20097;31
2024/01/10 03:28:24;;;;;;;98.40;35.60;;;-11.30;94.60;;;;;;2585471;54;20079;31
2024/01/10 03:31:00;;;;;;;106.03;35.50;;;-11.30;94.70;;;;;;2585471;54;20817;31
2024/01/10 03:33:34;;;;;;;88.85;36.45;;;-11.30;94.50;;;;;;2585355;54;20027;31
2024/01/10 03:36:10;;;;;;;85.95;33.00;;;-11.40;94.70;;;;;;2585089;54;20057;31
2024/01/10 03:38:44;;;;;;;80.57;31.50;;;-11.40;95.20;;;;;;2584419;54;20038;31
2024/01/10 03:41:19;;;;;;;98.55;36.20;;;-11.40;95.50;;;;;;2603710;46;20783;31
2024/01/10 03:43:58;;;;;;;87.90;36.95;;;-11.50;95.40;;;;;;2585163;54;20179;31
2024/01/10 03:46:31;;;;;;;95.50;34.92;;;-11.50;95.40;;;;;;2585273;54;20901;31
2024/01/10 03:49:12;;;;;;;91.68;36.58;;;-11.50;95.40;;;;;;2584990;54;20026;31
2024/01/10 03:51:46;;;;;;;87.50;37.40;;;-11.50;95.20;;;;;;2603851;46;20896;31
2024/01/10 03:54:20;;;;;;;87.50;35.20;;;-11.50;95.20;;;;;;2585233;54;20803;31
2024/01/10 03:56:53;;;;;;;102.97;38.53;;;-11.60;94.80;;;;;;2585289;54;20782;31
2024/01/10 03:59:32;;;;;;;88.30;35.28;;;-11.60;94.50;;;;;;2585247;54;20108;31
2024/01/10 04:02:08;;;;;;;91.70;36.80;;;-11.60;95.10;;;;;;2603590;46;20805;31
2024/01/10 04:04:44;;;;;;;99.25;36.38;;;-11.50;94.50;;;;;;2585198;54;20082;31
2024/01/10 04:07:18;;;;;;;97.32;35.80;;;-11.50;93.80;;;;;;2584986;54;20963;31
2024/01/10 04:09:56;;;;;;;100.70;35.23;;;-11.50;93.20;;;;;;2585304;54;20944;31
2024/01/10 04:12:29;;;;;;;93.77;37.33;;;-11.50;92.70;;;;;;2585255;54;21141;31
2024/01/10 04:15:07;;;;;;;94.57;37.63;;;-11.50;93.30;;;;;;2603621;46;20042;31
2024/01/10 04:17:42;;;;;;;90.00;37.72;;;-11.60;93.70;;;;;;2585039;54;20834;31
2024/01/10 04:20:18;;;;;;;93.97;38.63;;;-11.60;93.30;;;;;;2585327;54;20951;31
2024/01/10 04:22:53;;;;;;;97.50;34.47;;;-11.50;93.20;;;;;;2584203;54;20109;31
2024/01/10 04:25:27;;;;;;;99.50;38.40;;;-11.50;93.50;;;;;;2604076;46;20037;31
2024/01/10 04:28:03;;;;;;;102.10;36.60;;;-11.60;94.10;;;;;;2585109;54;20068;31
2024/01/10 04:30:40;;;;;;;95.20;36.85;;;-11.60;94.60;;;;;;2585214;54;20839;31
2024/01/10 04:33:17;;;;;;;108.70;38.03;;;-11.60;94.70;;;;;;2585124;54;20034;31
2024/01/10 04:35:50;;;;;;;100.90;36.83;;;-11.60;94.30;;;;;;2585521;54;21696;31
2024/01/10 04:38:26;;;;;;;86.40;35.90;;;-11.60;94.30;;;;;;2584260;54;20035;31
2024/01/10 04:41:04;;;;;;;102.77;38.33;;;-11.60;94.80;;;;;;2585063;54;20902;31
2024/01/10 04:43:40;;;;;;;84.35;36.85;;;-11.70;95.00;;;;;;2585023;54;20049;31
2024/01/10 04:46:16;;;;;;;101.93;38.88;;;-11.70;95.40;;;;;;2584824;54;20186;31
2024/01/10 04:48:54;;;;;;;95.20;37.42;;;-11.70;95.60;;;;;;2584209;54;20049;31
2024/01/10 04:51:29;;;;;;;89.35;35.20;;;-11.70;95.40;;;;;;2584210;54;21011;31
2024/01/10 04:54:05;;;;;;;91.35;37.50;;;-11.70;94.80;;;;;;2584994;54;20281;31
2024/01/10 04:56:38;;;;;;;96.90;39.50;;;-11.70;95.40;;;;;;2584180;54;20111;31
2024/01/10 04:59:12;;;;;;;100.30;40.50;;;-11.70;95.50;;;;;;2585083;54;20829;31
2024/01/10 05:01:53;;;;;;;101.50;37.65;;;-11.70;95.90;;;;;;2585191;54;20026;31
2024/01/10 05:04:28;;;;;;;93.97;40.88;;;-11.60;96.40;;;;;;2583959;54;20957;31
2024/01/10 05:07:01;;;;;;;106.77;38.23;;;-11.70;96.10;;;;;;2584352;54;20917;31
2024/01/10 05:09:35;;;;;;;102.80;40.40;;;-11.70;96.40;;;;;;2584388;54;20702;31
2024/01/10 05:12:10;;;;;;;76.95;33.80;;;-11.60;96.00;;;;;;2603359;46;20981;31
2024/01/10 05:14:45;;;;;;;92.65;40.90;;;-11.70;96.30;;;;;;2584920;54;20034;31
2024/01/10 05:17:22;;;;;;;;;;;-11.70;96.20;;;;;;2584390;54;20144;31
2024/01/10 05:19:58;;;;;;;83.40;34.55;;;-11.70;95.90;;;;;;2584911;54;20688;31
2024/01/10 05:22:34;;;;;;;94.50;38.83;;;-11.70;95.60;;;;;;2753945;31;22619;31
2024/01/10 05:25:09;;;;;;;105.72;39.28;;;-11.60;95.40;;;;;;2584996;54;20758;31
2024/01/10 05:27:44;;;;;;;92.57;35.67;;;-11.60;94.60;;;;;;2603259;46;20845;31
2024/01/10 05:30:22;;;;;;;102.67;38.23;;;-11.70;94.90;;;;;;2598184;46;20041;31
2024/01/10 05:33:03;;;;;;;93.20;40.10;;;-11.70;95.40;;;;;;2585000;54;20280;31
2024/01/10 05:35:38;;;;;;;96.50;40.63;;;-11.70;95.70;;;;;;2603392;46;21007;31
2024/01/10 05:38:13;;;;;;;97.70;38.60;;;-11.70;95.10;;;;;;2584838;54;20836;31
2024/01/10 05:40:51;;;;;;;96.07;39.13;;;-11.70;94.60;;;;;;2584859;54;20038;31
2024/01/10 05:43:27;;;;;;;100.68;38.70;;;-11.70;94.70;;;;;;2603531;46;20977;31
2024/01/10 05:46:01;;;;;;;99.07;38.90;;;-11.70;94.30;;;;;;2603047;46;21001;31
2024/01/10 05:48:41;;;;;;;97.80;42.07;;;-11.70;94.10;;;;;;2603301;46;20242;31
2024/01/10 05:51:17;;;;;;;97.70;40.80;;;-11.70;94.30;;;;;;2584820;54;21162;31
2024/01/10 05:53:52;;;;;;;125.70;44.10;;;-11.70;94.40;;;;;;2584808;54;20754;31
2024/01/10 05:56:27;;;;;;;142.40;53.70;;;-11.70;94.40;;;;;;2584645;54;20947;31
2024/01/10 05:59:03;;;;;;;103.30;47.30;;;-11.70;94.00;;;;;;2584965;54;20104;31
2024/01/10 06:01:41;;;;;;;113.97;43.75;;;-11.70;93.90;;;;;;2584861;54;20050;31
2024/01/10 06:04:19;;;;;;;119.15;42.85;;;-11.80;94.00;;;;;;2600264;47;20902;31
2024/01/10 06:06:54;;;;;;;114.00;46.05;;;-11.80;94.60;;;;;;2584703;54;20038;31
2024/01/10 06:09:29;;;;;;;134.57;54.47;;;-11.70;94.40;;;;;;2584656;54;20027;31
2024/01/10 06:12:05;;;;;;;149.00;60.83;;;-11.80;94.40;;;;;;2603230;47;20901;31
2024/01/10 06:14:43;;;;;;;319.67;125.80;;;-11.80;94.90;;;;;;2584661;54;20842;31
2024/01/10 06:17:18;;;;;;;196.77;77.57;;;-11.70;95.00;;;;;;2584872;54;20030;31
2024/01/10 06:19:58;;;;;;;126.03;49.80;;;-11.80;96.40;;;;;;2584939;54;21060;31
2024/01/10 06:22:32;;;;;;;108.35;43.20;;;-11.80;96.20;;;;;;2603347;47;20906;31
2024/01/10 06:25:08;;;;;;;109.63;45.93;;;-11.80;98.60;;;;;;2584640;54;20989;31
2024/01/10 06:27:43;;;;;;;151.95;57.90;;;-11.80;96.60;;;;;;2584885;54;20277;31
2024/01/10 06:30:25;;;;;;;142.83;57.00;;;-11.80;96.10;;;;;;2583845;54;20090;31
2024/01/10 06:32:59;;;;;;;129.43;56.97;;;-11.80;95.70;;;;;;2583844;54;20791;31
2024/01/10 06:35:34;;;;;;;118.13;56.40;;;-11.70;96.00;;;;;;2584922;54;21858;31
2024/01/10 06:38:09;;;;;;;120.07;53.58;;;-11.70;94.50;;;;;;2584950;54;20356;31
2024/01/10 06:40:44;;;;;;;118.10;45.20;;;-11.70;93.90;;;;;;2585529;54;20030;31
2024/01/10 06:43:19;;;;;;;98.00;40.38;;;-11.70;93.80;;;;;;2585459;54;20053;31
2024/01/10 06:45:54;;;;;;;109.00;41.80;;;-11.80;93.10;;;;;;2585500;54;20807;31
2024/01/10 06:48:29;;;;;;;97.75;44.00;;;-11.80;93.30;;;;;;2585524;54;20050;31
2024/01/10 06:51:07;;;;;;;104.05;43.20;;;-11.80;93.20;;;;;;2585210;54;20130;31
2024/01/10 06:53:40;;;;;;;107.17;44.53;;;-11.80;92.90;;;;;;2603800;46;20823;31
2024/01/10 06:56:14;;;;;;;129.35;45.40;;;-11.80;92.90;;;;;;2585428;54;20944;31
2024/01/10 06:58:49;;;;;;;107.78;43.28;;;-11.80;93.30;;;;;;2585527;54;20921;31
2024/01/10 07:01:23;;;;;;;106.30;44.55;;;-11.90;93.00;;;;;;2585790;54;21767;31
2024/01/10 07:04:01;;;;;;;119.65;44.60;;;-11.90;93.30;;;;;;2585464;54;20031;31
2024/01/10 07:06:39;;;;;;;117.07;44.17;;;-11.90;94.00;;;;;;2585245;54;20884;31
2024/01/10 07:09:19;;;;;;;114.57;42.57;;;-11.90;93.40;;;;;;2604019;46;20792;31
2024/01/10 07:11:54;;;;;;;125.75;44.17;;;-11.90;93.80;;;;;;2603666;46;20093;31
2024/01/10 07:14:30;;;;;;;112.05;43.70;;;-11.90;93.70;;;;;;2604205;46;20878;31
2024/01/10 07:17:09;;;;;;;115.87;43.87;;;-11.90;94.20;;;;;;2584918;54;20030;31
2024/01/10 07:19:46;;;;;;;102.70;41.05;;;-11.90;94.40;;;;;;2603560;46;21318;31
2024/01/10 07:22:27;;;;;;;87.37;33.20;;;-11.90;94.30;;;;;;2585217;54;20099;31
2024/01/10 07:25:05;;;;;;;108.35;43.10;;;-12.00;94.70;;;;;;2585376;54;20269;31
2024/01/10 07:27:41;;;;;;;107.72;44.85;;;-12.00;95.80;;;;;;2585613;54;20026;31
2024/01/10 07:30:17;;;;;;;105.77;44.73;;;-12.00;96.30;;;;;;2585843;54;21687;31
2024/01/10 07:32:52;;;;;;;;;;;-12.00;96.70;;;;;;2604239;46;20242;31
2024/01/10 07:35:29;;;;;;;116.25;45.10;;;-11.90;98.20;;;;;;2585636;54;19935;31
2024/01/10 07:38:08;;;;;;;117.00;46.85;;;-11.60;97.20;;;;;;2585443;54;19964;31
2024/01/10 07:40:44;;;;;;;110.22;43.10;;;-11.40;95.70;;;;;;2585425;54;20012;31
2024/01/10 07:43:18;;;;;;;;;;;-11.10;93.50;;;;;;2584693;54;20135;31
2024/01/10 07:45:54;;;;;;;106.35;42.20;;;-10.90;87.00;;;;;;2585588;54;19961;31
2024/01/10 07:48:31;;;;;;;101.32;43.45;;;-10.60;86.20;;;;;;2584559;54;20030;31
2024/01/10 07:51:07;;;;;;;105.60;42.27;;;-10.30;85.80;;;;;;2584651;54;21198;31
2024/01/10 07:53:46;;;;;;;108.20;41.65;;;-10.00;75.90;;;;;;2585271;54;20932;31
2024/01/10 07:56:22;;;;;;;115.05;46.42;;;-9.80;64.20;;;;;;2585157;54;19935;31
2024/01/10 07:58:57;;;;;;;113.40;43.45;;;-9.70;58.60;;;;;;2584524;54;20034;31
2024/01/10 08:01:34;;;;;;;118.20;43.43;;;-9.50;62.40;;;;;;2585472;54;20935;31
2024/01/10 08:04:10;;;;;;;117.45;45.70;;;-9.30;59.10;;;;;;2585203;54;20392;31
2024/01/10 08:06:50;;;;;;;105.30;43.10;;;-9.10;61.80;;;;;;2585068;54;20950;31
2024/01/10 08:09:28;;;;;;;103.95;41.00;;;-8.80;52.50;;;;;;2584360;54;20053;31
2024/01/10 08:12:02;;;;;;;113.85;41.30;;;-8.60;51.90;;;;;;2585309;54;20894;31
2024/01/10 08:14:37;;;;;;;107.40;41.40;;;-8.50;45.40;;;;;;2584669;54;20116;31
2024/01/10 08:17:11;;;;;;;109.30;44.30;;;-8.40;39.40;;;;;;2584563;54;20281;31
2024/01/10 08:19:48;;;;;;;112.95;44.30;;;-8.30;46.30;;;;;;2603685;46;20038;31
2024/01/10 08:22:25;;;;;;;121.90;44.55;;;-8.20;43.80;;;;;;2585171;54;20819;31
2024/01/10 08:25:07;;;;;;;110.97;44.08;;;-8.10;42.40;;;;;;2585151;54;20058;31
2024/01/10 08:27:42;;;;;;;121.43;43.47;;;-7.90;44.70;;;;;;2584139;54;20865;31
2024/01/10 08:30:26;;;;;;;101.15;42.80;;;-7.70;46.00;;;;;;2584335;54;20258;31
2024/01/10 08:36:58;;;;;;;95.55;40.47;;;-7.40;27.20;;;;;;2643774;53;20115;31
2024/01/10 08:39:35;;;;;;;101.97;40.42;;;-7.60;35.70;;;;;;2604207;54;20983;31
2024/01/10 08:42:13;;;;;;;125.60;47.80;;;-7.30;33.90;;;;;;2616929;46;20925;31
2024/01/10 08:44:51;;;;;;;110.68;43.28;;;-7.10;32.50;;;;;;2603529;54;20030;31
2024/01/10 08:47:27;;;;;;;122.28;45.65;;;-6.90;35.40;;;;;;2603594;54;20041;31
2024/01/10 08:50:04;;;;;;;119.13;44.00;;;-6.70;29.40;;;;;;2604703;54;20120;31
2024/01/10 08:52:43;;;;;;;108.05;43.13;;;-6.60;33.00;;;;;;2604316;54;21352;31
2024/01/10 08:55:18;;;;;;;135.70;47.95;;;-6.60;19.10;;;;;;2604240;54;21279;31
2024/01/10 08:57:53;;;;;;;128.48;50.75;;;-6.60;25.20;;;;;;2604272;54;20034;31
2024/01/10 09:00:29;;;;;;;138.40;53.07;;;-6.50;28.50;;;;;;2604379;54;20869;31
2024/01/10 09:03:07;;;;;;;131.77;51.45;;;-6.40;34.00;;;;;;2622542;46;20046;31
2024/01/10 09:05:44;;;;;;;113.77;47.90;;;-6.00;29.40;;;;;;2603480;54;20961;31
2024/01/10 09:08:39;;;;;;;125.25;47.60;;;-5.80;13.20;;;;;;2604358;54;20242;31
2024/01/10 09:11:15;;;;;;;115.22;44.05;;;-5.70;14.70;;;;;;2622305;46;20092;31
2024/01/10 09:13:50;;;;;;;111.70;48.30;;;-5.80;11.20;;;;;;2604520;54;20042;31
2024/01/10 09:16:26;;;;;;;116.37;45.40;;;-5.60;14.80;;;;;;2604406;54;20944;31
2024/01/10 09:19:00;;;;;;;;;;;-5.60;9.10;;;;;;2604475;54;20983;31
2024/01/10 09:21:35;;;;;;;111.07;45.72;;;-5.40;14.90;;;;;;2604561;54;19949;31
2024/01/10 09:24:14;;;;;;;110.95;46.05;;;-5.30;12.30;;;;;;2604389;54;20033;31
2024/01/10 09:27:02;;;;;;;108.97;45.50;;;-5.40;1.00;;;;;;2604292;54;20931;31
2024/01/10 09:29:38;;;;;;;121.07;46.88;;;-5.40;9.00;;;;;;2604333;54;20997;31
2024/01/10 09:32:14;;;;;;;118.55;49.20;;;-5.30;11.80;;;;;;2604454;54;20902;31
2024/01/10 09:34:48;;;;;;;117.75;44.30;;;-5.30;8.90;;;;;;2604142;54;20040;31
2024/01/10 09:37:23;;;;;;;129.67;47.10;;;-5.30;6.00;;;;;;2604437;54;20481;31
2024/01/10 09:40:01;;;;;;;117.22;46.38;;;-5.20;4.80;;;;;;2604441;54;20042;31
2024/01/10 09:42:37;;;;;;;132.40;53.33;;;-5.10;7.50;;;;;;2604120;54;20958;31
2024/01/10 09:45:12;;;;;;;132.70;50.08;;;-4.90;12.20;;;;;;2622864;46;20862;31
2024/01/10 09:47:48;;;;;;;125.97;49.45;;;-5.00;4.20;;;;;;2620083;46;20050;31
2024/01/10 09:50:22;;;;;;;138.70;51.67;;;-5.10;1.00;;;;;;2600437;54;20336;31
2024/01/10 09:53:00;;;;;;;117.78;48.25;;;-5.20;6.70;;;;;;2600851;54;21199;31
2024/01/10 09:55:39;;;;;;;116.50;47.13;;;-5.10;8.50;;;;;;2619082;46;20988;31
2024/01/10 09:58:14;;;;;;;114.90;47.00;;;-5.00;10.90;;;;;;2600577;54;20238;31
2024/01/10 10:00:50;;;;;;;119.65;47.00;;;-4.90;7.40;;;;;;2601076;54;20962;31
2024/01/10 10:03:24;;;;;;;113.97;44.50;;;-4.90;9.20;;;;;;2618833;46;21011;31
2024/01/10 10:06:00;;;;;;;122.15;47.38;;;-5.00;7.00;;;;;;2601035;54;21189;31
2024/01/10 10:08:37;;;;;;;;;;;-4.90;8.70;;;;;;2601000;54;20056;31
2024/01/10 10:11:18;;;;;;;107.50;45.08;;;-4.90;8.40;;;;;;2600282;54;21102;31
2024/01/10 10:13:54;;;;;;;112.63;47.45;;;-4.80;13.80;;;;;;2600756;54;20990;31
2024/01/10 10:16:29;;;;;;;115.28;46.55;;;-4.80;9.70;;;;;;2600360;54;20401;31
2024/01/10 10:19:05;;;;;;;109.80;42.95;;;-4.70;13.30;;;;;;2600524;54;20916;31
2024/01/10 10:21:42;;;;;;;117.43;46.67;;;-4.70;12.00;;;;;;2600594;54;20048;31
2024/01/10 10:24:21;;;;;;;102.47;44.70;;;-4.50;14.00;;;;;;2600494;54;20941;31
2024/01/10 10:27:07;;;;;;;110.43;43.17;;;-4.40;11.10;;;;;;2600661;54;20033;31
2024/01/10 10:29:44;;;;;;;107.20;40.75;;;-4.50;5.60;;;;;;2600906;54;20868;31
2024/01/10 10:32:21;;;;;;;108.55;42.10;;;-4.50;3.10;;;;;;2600465;54;20042;31
2024/01/10 10:34:59;;;;;;;117.03;43.00;;;-4.60;2.70;;;;;;2600717;54;20890;31
2024/01/10 10:37:35;;;;;;;116.00;45.17;;;-4.50;14.60;;;;;;2599316;54;21068;31
2024/01/10 10:40:13;;;;;;;124.28;48.63;;;-4.50;11.20;;;;;;2600823;39;20268;31
2024/01/10 10:42:56;;;;;;;119.77;44.97;;;-4.40;13.30;;;;;;2600700;54;20026;31
2024/01/10 10:45:35;;;;;;;132.18;49.47;;;-4.30;15.00;;;;;;2600136;39;20214;31
2024/01/10 10:48:11;;;;;;;114.93;47.60;;;-4.30;13.60;;;;;;2599501;54;20970;31
2024/01/10 10:50:50;;;;;;;131.70;49.00;;;-4.30;11.90;;;;;;2599675;54;20243;31
2024/01/10 10:53:27;;;;;;;127.07;51.63;;;-4.30;9.80;;;;;;2599897;39;20257;31
2024/01/10 10:56:03;;;;;;;137.15;49.80;;;-4.30;10.90;;;;;;2600230;54;20945;31
2024/01/10 10:58:48;;;;;;;138.57;52.80;;;-4.30;14.70;;;;;;2600155;54;20034;31
2024/01/10 11:01:22;;;;;;;148.93;55.65;;;-4.20;18.40;;;;;;2600520;54;20632;31
2024/01/10 11:03:58;;;;;;;122.60;49.95;;;-4.40;10.70;;;;;;2600340;54;20026;31
2024/01/10 11:06:39;;;;;;;143.57;55.03;;;-4.40;13.70;;;;;;2600213;54;21013;31
2024/01/10 11:09:17;;;;;;;149.27;53.83;;;-4.40;14.00;;;;;;2600468;54;20980;31
2024/01/10 11:12:03;;;;;;;143.90;51.67;;;-4.40;12.30;;;;;;2600810;39;20492;31
2024/01/10 11:14:49;;;;;;;172.68;59.20;;;-4.50;11.80;;;;;;2600367;54;20440;31
2024/01/10 11:18:14;;;;;;;186.75;59.67;;;-4.50;13.50;;;;;;2600334;54;20934;31
2024/01/10 11:21:03;;;;;;;137.25;50.45;;;-4.60;11.90;;;;;;2600444;54;20151;31
2024/01/10 11:23:45;;;;;;;112.65;45.30;;;-4.60;15.70;;;;;;2600550;54;20974;31
2024/01/10 11:26:21;;;;;;;126.35;47.80;;;-4.80;13.90;;;;;;2600465;54;20839;31
2024/01/10 11:28:57;;;;;;;170.65;61.50;;;-4.80;18.20;;;;;;2600699;39;20300;31
2024/01/10 11:31:35;;;;;;;123.93;46.27;;;-4.80;20.80;;;;;;2600393;54;20873;31
2024/01/10 11:34:13;;;;;;;94.40;42.75;;;-4.80;20.90;;;;;;2600495;54;20331;31
2024/01/10 11:37:18;;;;;;;111.28;42.38;;;-4.90;18.80;;;;;;2600777;54;20960;31
2024/01/10 11:39:54;;;;;;;113.60;43.05;;;-4.90;19.70;;;;;;2600718;54;20921;31
2024/01/10 11:42:43;;;;;;;124.30;48.50;;;-5.00;21.60;;;;;;2600404;54;20042;31
2024/01/10 11:45:36;;;;;;;125.25;46.70;;;-5.00;24.50;;;;;;2619169;46;20027;31
2024/01/10 11:48:14;;;;;;;114.55;43.75;;;-5.00;25.80;;;;;;2600427;54;20968;31
2024/01/10 11:50:50;;;;;;;107.38;43.47;;;-5.00;23.90;;;;;;2600239;54;20038;31
2024/01/10 11:53:46;;;;;;;112.23;45.53;;;-4.90;25.80;;;;;;2600191;54;20920;31
2024/01/10 11:56:21;;;;;;;140.70;50.25;;;-5.00;27.10;;;;;;2599983;54;20988;31
2024/01/10 11:59:10;;;;;;;118.75;45.10;;;-5.00;26.80;;;;;;2613755;46;20976;31
2024/01/10 12:01:46;;;;;;;117.43;43.88;;;-5.10;26.50;;;;;;2600520;54;20926;31
2024/01/10 12:04:26;;;;;;;107.72;41.97;;;-5.00;26.40;;;;;;2600519;39;20256;31
2024/01/10 12:07:18;;;;;;;105.63;41.95;;;-5.00;27.10;;;;;;2600522;54;20034;31
2024/01/10 12:09:54;;;;;;;121.35;44.15;;;-5.00;31.00;;;;;;2600195;54;20041;31
2024/01/10 12:12:30;;;;;;;90.30;35.00;;;-5.00;27.00;;;;;;2600397;54;20034;31
2024/01/10 12:15:09;;;;;;;87.75;36.50;;;-5.00;19.70;;;;;;2600026;54;20545;31
2024/01/10 12:17:47;;;;;;;89.47;38.08;;;-5.00;22.10;;;;;;2600760;39;20272;31
2024/01/10 12:20:24;;;;;;;107.78;40.95;;;-5.00;22.60;;;;;;2600215;54;20030;31
2024/01/10 12:23:00;;;;;;;102.45;38.90;;;-5.00;22.70;;;;;;2600087;54;21032;31
2024/01/10 12:25:38;;;;;;;105.25;39.83;;;-5.00;22.90;;;;;;2618468;46;21016;31
2024/01/10 12:28:14;;;;;;;101.10;37.70;;;-5.00;21.50;;;;;;2600110;54;20910;31
2024/01/10 12:30:49;;;;;;;100.82;38.03;;;-5.00;24.40;;;;;;2600076;54;20041;31
2024/01/10 12:33:30;;;;;;;101.00;39.10;;;-4.90;20.80;;;;;;2601292;39;20256;31
2024/01/10 12:36:11;;;;;;;97.35;38.05;;;-4.90;21.90;;;;;;2601763;39;20273;31
2024/01/10 12:38:49;;;;;;;103.38;39.55;;;-4.90;21.60;;;;;;2599974;54;20963;31
2024/01/10 12:41:26;;;;;;;96.80;37.72;;;-4.90;23.10;;;;;;2599771;54;20038;31
2024/01/10 12:44:09;;;;;;;96.18;36.17;;;-4.90;23.90;;;;;;2618530;47;20818;31
2024/01/10 12:46:55;;;;;;;97.25;38.30;;;-4.80;19.90;;;;;;2600497;54;20906;31
2024/01/10 12:49:32;;;;;;;89.40;33.80;;;-4.80;17.40;;;;;;2600106;54;20941;31
2024/01/10 12:52:11;;;;;;;87.65;34.35;;;-4.80;16.00;;;;;;2600242;54;20969;31
2024/01/10 12:54:58;;;;;;;102.50;35.65;;;-4.80;20.30;;;;;;2600215;54;20132;31
2024/01/10 12:57:37;;;;;;;100.37;36.13;;;-4.80;17.50;;;;;;2600549;54;20850;31
2024/01/10 13:02:53;;;;;;;93.22;37.03;;;-4.70;19.40;;;;;;2600654;54;21291;31
2024/01/10 13:05:32;;;;;;;99.65;37.38;;;-4.70;23.10;;;;;;2599745;54;20044;31
2024/01/10 13:08:23;;;;;;;93.80;35.35;;;-4.70;22.10;;;;;;2600051;39;21302;31
2024/01/10 13:11:00;;;;;;;92.15;36.85;;;-4.70;20.10;;;;;;2617371;31;20370;31
2024/01/10 13:13:38;;;;;;;103.15;35.90;;;-4.70;23.10;;;;;;2607250;47;21010;31
2024/01/10 13:16:16;;;;;;;104.15;37.00;;;-4.60;23.00;;;;;;2599225;54;20032;31
2024/01/10 13:18:54;;;;;;;102.03;38.50;;;-4.60;21.80;;;;;;2618537;47;20867;31
2024/01/10 13:21:31;;;;;;;87.97;36.25;;;-4.60;20.90;;;;;;2599726;54;20258;31
2024/01/10 13:24:12;;;;;;;97.40;36.35;;;-4.60;19.10;;;;;;2600825;54;20049;31